Mansfield Lahm Regional Airport
KMFD : now visible

Airfield :











YOU CAN JOIN US ON...

 
LOGIN :

Register | Disclaimer

   EN    FR    IT 

 









Legend :    VFR   Marginal VFR   IFR   Intensive IFR   Very Intensive IFR
Visi :
Ceiling :
>= 8 km
>= 3000ft
5 to 8 km
1000 to 3000 ft
1500m to 5 km
500 to 1000 ft
800 to 1500m
200 to 500 ft
< 800m
< 200 ft
Symbols :   Thunderstorms  Fog  Heavy snow  Heavy precipitations  Wind > 20 kt






- Airport Elevation : 1297 ft


KMFD - Mansfield Lahm Regional

CURRENT METAR :
  • 181202Z 14018KT 4SM FZRA BR FEW028 OVC038 M01/M02 A3006 RMK AO2 P0002 T10061022

EXPIRED METARs :
  • 181139Z 14019G26KT 4SM FZRA BR BKN030 OVC042 M01/M03 A3008 RMK AO2 PK WND 13026/1137 UPB34E39FZRAB39SNE34 P0008 T10061028
  • 181132Z 14016G25KT 3SM -SN BR BKN026 BKN033 OVC044 M01/M03 A3008 RMK AO2 P0007 T10111028
  • 181113Z 14017G22KT 1 1/2SM -SN BR OVC026 M02/M03 A3012 RMK AO2 P0003 T10171033
  • 181059Z 14016KT 2 1/2SM -SN BR OVC032 M02/M03 A3013 RMK AO2 P0001 T10171033
  • 181052Z 14016KT 3SM -SN BR BKN029 OVC037 M02/M03 A3013 RMK AO2 SLP219 P0006 T10171033
  • 181003Z 13013KT 1 3/4SM -SN BR OVC025 M02/M04 A3017 RMK AO2 PRESFR P0000 T10171039
  • 180952Z 15014KT 4SM -SN BR OVC027 M02/M03 A3019 RMK AO2 UPB11E21SNE11B21 SLP237 P0002 T10171033
  • 180945Z 15014KT 5SM -SN BR OVC027 M02/M04 A3019 RMK AO2 UPB11E21SNE11B21 P0002 T10171039
  • 180928Z 15013KT 2 1/2SM -SN BR OVC029 M02/M03 A3021 RMK AO2 UPB11E21SNE11B21 P0001 T10171033
  • 180914Z 14013KT 8SM UP OVC030 M02/M04 A3020 RMK AO2 UPB11SNE11 P0001 T10171039

TAF KMFD
Valid from the 18 at 12:00 until the 19 at 12:00 UTC


181120Z 1812/1912 15015G25KT 3SM -SN BR OVC035 WS020/18045KT
TEMPO 1812/1814 2SM -FZRA BR OVC025
FM181400 17020G30KT 2SM RA OVC015 WS020/19045KT
FM181700 20020G30KT 2SM RA OVC008
FM182200 23020G30KT P6SM OVC008
FM190200 25015G25KT P6SM OVC015



MET'MAP, your aeronautical weather chart ! - Copyright ORBIFLY December 2007 - Disclaimer

ORBIFLY MET'MAP TEAM :

Programming & Development : Alexandra Zaïnal
Concept & original design : Baudouin d'Aumeries
Assistance for programming : Marc-Olivier Méhu
Technical & hardware support : Manuel Goepfert

Contact : metmap@orbifly.com




SOURCES & CREDITS :

   NOAA       Earth
Advisory